createdAt,value
2023-05-02T00:02:31.880Z,11.07
2023-05-02T00:05:15.451Z,11.03
2023-05-02T00:07:58.876Z,11.07
2023-05-02T00:10:43.645Z,11.80
2023-05-02T00:13:27.110Z,11.90
2023-05-02T00:16:11.260Z,10.13
2023-05-02T00:18:54.684Z,11.03
2023-05-02T00:21:37.785Z,11.03
2023-05-02T00:24:22.029Z,12.30
2023-05-02T00:27:07.137Z,11.17
2023-05-02T00:29:50.291Z,11.53
2023-05-02T00:32:33.966Z,11.77
2023-05-02T00:35:17.196Z,11.93
2023-05-02T00:38:01.248Z,12.23
2023-05-02T00:40:46.154Z,12.30
2023-05-02T00:43:33.455Z,11.10
2023-05-02T00:46:16.750Z,12.60
2023-05-02T00:49:00.745Z,11.70
2023-05-02T00:51:44.158Z,11.03
2023-05-02T00:54:27.377Z,13.53
2023-05-02T00:57:12.137Z,13.60
2023-05-02T00:59:57.469Z,11.60
2023-05-02T01:02:51.015Z,13.43
2023-05-02T01:05:46.333Z,12.33
2023-05-02T01:08:38.638Z,11.47
2023-05-02T01:11:34.069Z,12.80
2023-05-02T01:14:18.497Z,12.23
2023-05-02T01:17:06.306Z,14.40
2023-05-02T01:19:54.163Z,12.83
2023-05-02T01:22:41.202Z,12.20
2023-05-02T01:25:31.117Z,11.43
2023-05-02T01:28:29.087Z,12.40
2023-05-02T01:31:15.247Z,11.60
2023-05-02T01:34:00.279Z,11.70
2023-05-02T01:36:46.922Z,11.93
2023-05-02T01:39:31.620Z,12.73
2023-05-02T01:42:16.646Z,11.57
2023-05-02T01:45:01.518Z,12.27
2023-05-02T01:47:47.820Z,12.37
2023-05-02T01:50:31.503Z,13.03
2023-05-02T01:53:15.884Z,12.80
2023-05-02T01:56:00.885Z,12.00
2023-05-02T01:58:47.148Z,11.33
2023-05-02T02:01:31.864Z,11.37
2023-05-02T02:04:19.056Z,12.47
2023-05-02T02:07:07.654Z,12.10
2023-05-02T02:09:51.374Z,11.27
2023-05-02T02:12:43.911Z,12.17
2023-05-02T02:15:30.563Z,11.43
2023-05-02T02:18:19.875Z,12.50
2023-05-02T02:21:08.168Z,12.57
2023-05-02T02:23:57.387Z,12.50
2023-05-02T02:26:40.792Z,13.90
2023-05-02T02:29:23.954Z,12.30
2023-05-02T02:32:07.328Z,12.63
2023-05-02T02:34:50.630Z,12.40
2023-05-02T02:37:41.187Z,12.13
2023-05-02T02:40:29.952Z,12.40
2023-05-02T02:43:20.857Z,12.40
2023-05-02T02:46:18.491Z,11.83
2023-05-02T02:49:16.594Z,12.17
2023-05-02T02:52:09.190Z,17.30
2023-05-02T02:55:00.036Z,13.17
2023-05-02T02:57:52.802Z,13.37
2023-05-02T03:00:37.858Z,14.00
2023-05-02T03:03:25.210Z,11.23
2023-05-02T03:06:08.751Z,13.27
2023-05-02T03:08:54.248Z,11.03
2023-05-02T03:11:38.822Z,12.17
2023-05-02T03:14:22.147Z,11.33
2023-05-02T03:17:05.385Z,12.53
2023-05-02T03:19:48.825Z,16.03
2023-05-02T03:22:33.270Z,14.40
2023-05-02T03:25:16.626Z,12.83
2023-05-02T03:28:02.448Z,13.37
2023-05-02T03:30:46.072Z,11.70
2023-05-02T03:33:29.332Z,13.67
2023-05-02T03:36:12.528Z,12.77
2023-05-02T03:38:56.089Z,13.23
2023-05-02T03:41:39.258Z,12.53
2023-05-02T03:44:23.909Z,11.60
2023-05-02T03:47:07.654Z,12.47
2023-05-02T03:49:53.193Z,11.87
2023-05-02T03:52:36.457Z,12.40
2023-05-02T03:55:19.706Z,11.87
2023-05-02T03:58:02.824Z,12.00
2023-05-02T04:00:47.489Z,11.83
2023-05-02T04:03:31.149Z,10.90
2023-05-02T04:06:14.449Z,11.60
2023-05-02T04:08:58.592Z,11.90
2023-05-02T04:11:43.240Z,11.70
2023-05-02T04:14:26.574Z,12.07
2023-05-02T04:17:11.902Z,11.77
2023-05-02T04:19:55.347Z,11.00
2023-05-02T04:22:39.768Z,11.30
2023-05-02T04:25:23.016Z,11.63
2023-05-02T04:28:07.363Z,11.17
2023-05-02T04:30:51.029Z,11.20
2023-05-02T04:33:36.601Z,10.97
2023-05-02T04:36:20.253Z,11.87
2023-05-02T04:39:03.790Z,12.00
2023-05-02T04:41:47.036Z,11.67
2023-05-02T04:44:30.150Z,11.87
2023-05-02T04:47:13.296Z,11.20
2023-05-02T04:49:58.093Z,12.10
2023-05-02T04:52:42.094Z,10.87
2023-05-02T04:55:25.273Z,10.87
2023-05-02T04:58:08.434Z,11.20
2023-05-02T05:00:51.478Z,10.83
2023-05-02T05:03:34.643Z,10.50
2023-05-02T05:06:19.440Z,10.80
2023-05-02T05:09:02.664Z,10.33
2023-05-02T05:11:46.295Z,10.37
2023-05-02T05:14:31.523Z,10.27
2023-05-02T05:17:14.738Z,10.93
2023-05-02T05:19:57.954Z,10.70
2023-05-02T05:22:43.267Z,10.23
2023-05-02T05:25:27.315Z,11.17
2023-05-02T05:28:10.422Z,10.00
2023-05-02T05:30:53.877Z,10.00
2023-05-02T05:33:37.519Z,10.53
2023-05-02T05:36:22.849Z,9.83
2023-05-02T05:39:08.038Z,9.80
2023-05-02T05:41:51.196Z,9.60
2023-05-02T05:44:34.265Z,10.27
2023-05-02T05:47:22.056Z,9.60
2023-05-02T05:50:06.268Z,9.83
2023-05-02T05:52:49.402Z,9.40
2023-05-02T05:55:35.907Z,9.30
2023-05-02T05:58:20.407Z,9.47
2023-05-02T06:01:03.554Z,8.93
2023-05-02T06:03:46.799Z,10.63
2023-05-02T06:06:30.280Z,10.40
2023-05-02T06:09:13.886Z,8.80
2023-05-02T06:11:58.383Z,10.00
2023-05-02T06:14:41.739Z,8.90
2023-05-02T06:17:24.989Z,9.80
2023-05-02T06:20:12.549Z,8.40
2023-05-02T06:22:56.183Z,9.30
2023-05-02T06:25:40.254Z,8.83
2023-05-02T06:28:24.735Z,8.57
2023-05-02T06:31:10.837Z,8.83
2023-05-02T06:33:54.098Z,9.83
2023-05-02T06:36:44.778Z,9.03
2023-05-02T06:39:34.341Z,9.33
2023-05-02T06:42:17.414Z,8.90
2023-05-02T06:45:01.880Z,9.40
2023-05-02T06:47:45.300Z,8.83
2023-05-02T06:50:28.526Z,9.37
2023-05-02T06:53:11.593Z,11.77
2023-05-02T06:55:55.067Z,9.10
2023-05-02T06:58:38.235Z,8.70
2023-05-02T07:01:23.521Z,8.40
2023-05-02T07:04:06.883Z,9.03
2023-05-02T07:06:50.123Z,8.87
2023-05-02T07:09:33.500Z,7.90
2023-05-02T07:12:16.561Z,8.67
2023-05-02T07:14:59.617Z,7.63
2023-05-02T07:17:44.823Z,7.07
2023-05-02T07:20:28.059Z,6.83
2023-05-02T07:23:11.138Z,9.20
2023-05-02T07:25:54.202Z,6.60
2023-05-02T07:28:37.280Z,7.30
2023-05-02T07:31:20.566Z,6.60
2023-05-02T07:34:05.043Z,6.30
2023-05-02T07:36:48.164Z,5.97
2023-05-02T07:39:31.377Z,6.10
2023-05-02T07:42:14.428Z,7.33
2023-05-02T07:44:57.667Z,6.10
2023-05-02T07:47:42.004Z,6.10
2023-05-02T07:50:27.384Z,5.93
2023-05-02T07:53:11.273Z,6.07
2023-05-02T07:55:54.520Z,6.10
2023-05-02T07:58:38.446Z,5.93
2023-05-02T08:01:21.563Z,6.30
2023-05-02T08:04:05.681Z,6.20
2023-05-02T08:06:50.556Z,5.90
2023-05-02T08:09:33.990Z,5.93
2023-05-02T08:12:17.066Z,5.40
2023-05-02T08:15:00.241Z,5.60
2023-05-02T08:17:43.647Z,5.53
2023-05-02T08:20:26.967Z,5.67
2023-05-02T08:23:11.485Z,5.90
2023-05-02T08:25:55.604Z,6.40
2023-05-02T08:28:39.123Z,6.03
2023-05-02T08:31:23.048Z,6.03
2023-05-02T08:34:07.175Z,6.07
2023-05-02T08:36:50.312Z,5.73
2023-05-02T08:39:35.935Z,5.70
2023-05-02T08:42:21.005Z,5.73
2023-05-02T08:45:04.272Z,7.27
2023-05-02T08:47:49.487Z,6.00
2023-05-02T08:50:32.819Z,5.80
2023-05-02T08:53:15.997Z,5.90
2023-05-02T08:56:00.755Z,5.43
2023-05-02T08:58:43.872Z,5.60
2023-05-02T09:01:31.708Z,4.93
2023-05-02T09:04:16.044Z,5.53
2023-05-02T09:06:59.579Z,5.67
2023-05-02T09:09:42.726Z,5.60
2023-05-02T09:12:30.301Z,5.90
2023-05-02T09:15:16.879Z,5.23
2023-05-02T09:18:01.568Z,5.40
2023-05-02T09:20:44.764Z,5.17
2023-05-02T09:23:34.813Z,5.47
2023-05-02T09:26:19.814Z,5.10
2023-05-02T09:29:06.021Z,4.97
2023-05-02T09:31:56.313Z,5.17
2023-05-02T09:34:40.008Z,5.40
2023-05-02T09:37:35.935Z,5.30
2023-05-02T09:40:19.938Z,4.90
2023-05-02T09:43:16.418Z,4.57
2023-05-02T09:46:02.951Z,4.97
2023-05-02T09:48:57.983Z,5.27
2023-05-02T09:51:41.636Z,4.50
2023-05-02T09:54:38.083Z,4.77
2023-05-02T09:57:22.037Z,5.00
2023-05-02T10:00:05.975Z,5.17
2023-05-02T10:02:52.453Z,5.60
2023-05-02T10:05:39.005Z,4.80
2023-05-02T10:08:23.067Z,4.80
2023-05-02T10:11:09.248Z,4.83
2023-05-02T10:13:54.230Z,4.67
2023-05-02T10:16:41.463Z,4.60
2023-05-02T10:19:32.155Z,4.93
2023-05-02T10:22:15.636Z,4.43
2023-05-02T10:25:01.130Z,4.80
2023-05-02T10:27:44.800Z,4.90
2023-05-02T10:30:28.372Z,4.80
2023-05-02T10:33:15.077Z,6.03
2023-05-02T10:36:00.042Z,5.00
2023-05-02T10:38:43.815Z,4.93
2023-05-02T10:41:30.055Z,5.73
2023-05-02T10:44:13.707Z,5.57
2023-05-02T10:46:57.232Z,5.80
2023-05-02T10:49:53.754Z,5.97
2023-05-02T10:52:41.365Z,6.03
2023-05-02T10:55:25.494Z,5.83
2023-05-02T10:58:27.044Z,5.87
2023-05-02T11:01:41.949Z,6.37
2023-05-02T11:04:25.866Z,6.63
2023-05-02T11:07:20.249Z,10.43
2023-05-02T11:10:36.656Z,6.40
2023-05-02T11:13:50.412Z,6.27
2023-05-02T11:17:06.929Z,7.60
2023-05-02T11:20:29.301Z,6.93
2023-05-02T11:23:26.342Z,7.00
2023-05-02T11:26:23.299Z,6.80
2023-05-02T11:29:07.782Z,6.73
2023-05-02T11:31:59.506Z,6.97
2023-05-02T11:34:46.096Z,7.50
2023-05-02T11:37:32.722Z,6.90
2023-05-02T11:40:17.039Z,6.80
2023-05-02T11:43:02.740Z,7.00
2023-05-02T11:45:47.411Z,11.03
2023-05-02T11:48:31.905Z,9.97
2023-05-02T11:51:15.453Z,7.57
2023-05-02T11:54:00.197Z,7.67
2023-05-02T11:56:43.987Z,6.90
2023-05-02T11:59:27.432Z,7.03
2023-05-02T12:02:12.032Z,8.03
2023-05-02T12:04:55.222Z,7.83
2023-05-02T12:07:39.059Z,8.00
2023-05-02T12:10:22.302Z,7.33
2023-05-02T12:13:06.743Z,7.00
2023-05-02T12:15:51.822Z,8.30
2023-05-02T12:18:37.013Z,8.20
2023-05-02T12:21:20.958Z,8.30
2023-05-02T12:24:04.698Z,7.80
2023-05-02T12:26:49.368Z,8.07
2023-05-02T12:29:45.385Z,8.23
2023-05-02T12:32:30.207Z,7.70
2023-05-02T12:35:24.042Z,8.90
2023-05-02T12:38:12.513Z,8.90
2023-05-02T12:40:57.874Z,8.07
2023-05-02T12:43:48.652Z,7.97
2023-05-02T12:46:32.644Z,8.27
2023-05-02T12:49:18.174Z,8.23
2023-05-02T12:52:04.773Z,7.63
2023-05-02T12:54:51.705Z,7.77
2023-05-02T12:57:34.826Z,7.20
2023-05-02T13:00:18.821Z,6.80
2023-05-02T13:03:02.218Z,7.47
2023-05-02T13:05:45.511Z,7.37
2023-05-02T13:08:31.392Z,7.33
2023-05-02T13:11:14.824Z,8.00
2023-05-02T13:14:00.300Z,8.00
2023-05-02T13:16:43.499Z,7.50
2023-05-02T13:19:29.308Z,7.50
2023-05-02T13:22:12.420Z,8.10
2023-05-02T13:24:57.154Z,8.77
2023-05-02T13:27:41.319Z,7.20
2023-05-02T13:30:24.514Z,8.43
2023-05-02T13:33:08.101Z,7.90
2023-05-02T13:35:51.610Z,9.70
2023-05-02T13:38:35.388Z,9.17
2023-05-02T13:41:20.268Z,9.07
2023-05-02T13:44:04.412Z,8.47
2023-05-02T13:46:47.978Z,8.00
2023-05-02T13:49:31.311Z,7.90
2023-05-02T13:52:14.498Z,7.23
2023-05-02T13:54:57.728Z,7.73
2023-05-02T13:57:42.298Z,9.57
2023-05-02T14:00:28.621Z,8.50
2023-05-02T14:03:13.655Z,7.80
2023-05-02T14:05:56.962Z,7.57
2023-05-02T14:08:41.406Z,8.07
2023-05-02T14:11:24.632Z,8.07
2023-05-02T14:14:12.503Z,7.63
2023-05-02T14:16:56.073Z,8.57
2023-05-02T14:19:39.301Z,7.30
2023-05-02T14:22:22.387Z,7.37
2023-05-02T14:25:06.113Z,7.30
2023-05-02T14:27:49.283Z,7.70
2023-05-02T14:30:33.983Z,7.00
2023-05-02T14:33:17.351Z,7.97
2023-05-02T14:36:00.732Z,8.10
2023-05-02T14:38:43.919Z,7.20
2023-05-02T14:41:27.769Z,7.67
2023-05-02T14:44:10.921Z,7.20
2023-05-02T14:46:58.777Z,7.87
2023-05-02T14:49:42.200Z,7.83
2023-05-02T14:52:25.475Z,6.80
2023-05-02T14:55:09.225Z,8.37
2023-05-02T14:57:52.576Z,7.47
2023-05-02T15:00:38.172Z,8.00
2023-05-02T15:03:23.247Z,7.57
2023-05-02T15:06:06.593Z,8.37
2023-05-02T15:08:53.009Z,8.00
2023-05-02T15:11:36.186Z,6.77
2023-05-02T15:14:19.304Z,6.37
2023-05-02T15:17:02.719Z,9.03
2023-05-02T15:19:47.499Z,8.00
2023-05-02T15:22:30.607Z,7.93
2023-05-02T15:25:13.864Z,6.80
2023-05-02T15:27:57.031Z,7.10
2023-05-02T15:30:41.679Z,6.43
2023-05-02T15:33:24.854Z,7.23
2023-05-02T15:36:10.156Z,7.50
2023-05-02T15:38:53.302Z,7.10
2023-05-02T15:41:37.153Z,6.67
2023-05-02T15:44:20.511Z,7.00
2023-05-02T15:47:03.739Z,6.90
2023-05-02T15:49:47.373Z,6.87
2023-05-02T15:52:31.998Z,7.13
2023-05-02T15:55:15.209Z,7.30
2023-05-02T15:57:58.818Z,7.97
2023-05-02T16:00:42.295Z,7.93
2023-05-02T16:03:25.561Z,7.73
2023-05-02T16:06:09.485Z,6.87
2023-05-02T16:08:54.097Z,7.90
2023-05-02T16:11:38.595Z,7.20
2023-05-02T16:14:24.038Z,7.67
2023-05-02T16:17:07.162Z,7.90
2023-05-02T16:19:50.363Z,7.10
2023-05-02T16:22:33.590Z,7.73
2023-05-02T16:25:18.856Z,10.20
2023-05-02T16:28:02.267Z,7.97
2023-05-02T16:30:45.448Z,8.33
2023-05-02T16:33:28.651Z,7.20
2023-05-02T16:36:12.125Z,7.37
2023-05-02T16:38:57.240Z,6.60
2023-05-02T16:41:42.111Z,8.53
2023-05-02T16:44:25.489Z,6.83
2023-05-02T16:47:09.381Z,6.23
2023-05-02T16:49:56.109Z,7.20
2023-05-02T16:52:40.025Z,6.77
2023-05-02T16:55:25.108Z,10.33
2023-05-02T16:58:10.290Z,7.13
2023-05-02T17:00:53.762Z,7.73
2023-05-02T17:03:37.087Z,7.77
2023-05-02T17:06:23.055Z,8.17
2023-05-02T17:09:06.558Z,6.67
2023-05-02T17:11:50.365Z,8.10
2023-05-02T17:14:35.074Z,9.20
2023-05-02T17:17:20.525Z,19.03
2023-05-02T17:20:03.907Z,9.40
2023-05-02T17:22:47.278Z,7.73
2023-05-02T17:25:31.418Z,6.67
2023-05-02T17:28:14.680Z,8.63
2023-05-02T17:31:00.347Z,8.40
2023-05-02T17:33:43.862Z,7.27
2023-05-02T17:36:28.001Z,8.33
2023-05-02T17:39:17.819Z,10.13
2023-05-02T17:42:02.191Z,8.47
2023-05-02T17:44:47.719Z,8.83
2023-05-02T17:47:32.303Z,9.10
2023-05-02T17:50:15.659Z,8.70
2023-05-02T17:53:01.060Z,7.80
2023-05-02T17:55:44.627Z,8.47
2023-05-02T17:58:28.453Z,7.00
2023-05-02T18:01:12.441Z,8.33
2023-05-02T18:03:59.510Z,6.77
2023-05-02T18:06:42.865Z,7.23
2023-05-02T18:09:25.962Z,7.63
2023-05-02T18:12:09.809Z,8.53
2023-05-02T18:14:54.027Z,7.53
2023-05-02T18:17:39.048Z,12.43
2023-05-02T18:20:23.660Z,6.97
2023-05-02T18:23:06.681Z,8.23
2023-05-02T18:25:49.936Z,8.27
2023-05-02T18:28:34.652Z,7.43
2023-05-02T18:31:18.267Z,9.77
2023-05-02T18:34:01.369Z,7.77
2023-05-02T18:36:46.272Z,9.67
2023-05-02T18:39:31.901Z,8.00
2023-05-02T18:42:17.602Z,7.87
2023-05-02T18:45:01.462Z,7.43
2023-05-02T18:47:45.139Z,7.10
2023-05-02T18:50:28.394Z,8.10
2023-05-02T18:53:13.364Z,9.20
2023-05-02T18:55:58.026Z,10.50
2023-05-02T18:58:41.143Z,7.63
2023-05-02T19:01:25.130Z,8.27
2023-05-02T19:04:08.411Z,7.33
2023-05-02T19:06:51.679Z,7.20
2023-05-02T19:09:36.292Z,10.10
2023-05-02T19:12:19.417Z,7.67
2023-05-02T19:15:02.966Z,7.63
2023-05-02T19:17:46.522Z,6.50
2023-05-02T19:20:30.422Z,7.20
2023-05-02T19:23:18.953Z,11.43
2023-05-02T19:26:04.837Z,8.47
2023-05-02T19:28:48.215Z,11.33
2023-05-02T19:31:31.622Z,7.70
2023-05-02T19:34:14.784Z,7.10
2023-05-02T19:36:57.915Z,7.20
2023-05-02T19:39:41.085Z,24.40
2023-05-02T19:42:25.548Z,20.90
2023-05-02T19:45:09.988Z,8.77
2023-05-02T19:47:53.137Z,7.97
2023-05-02T19:50:36.360Z,9.23
2023-05-02T19:53:19.807Z,7.43
2023-05-02T19:56:04.867Z,7.17
2023-05-02T19:58:49.755Z,6.90
2023-05-02T20:01:32.891Z,9.10
2023-05-02T20:04:16.056Z,8.13
2023-05-02T20:06:59.237Z,7.53
2023-05-02T20:09:42.400Z,7.80
2023-05-02T20:12:25.985Z,13.07
2023-05-02T20:15:11.333Z,7.40
2023-05-02T20:17:57.086Z,12.47
2023-05-02T20:20:40.394Z,11.70
2023-05-02T20:23:23.825Z,7.37
2023-05-02T20:26:06.982Z,7.10
2023-05-02T20:28:50.411Z,7.60
2023-05-02T20:31:36.369Z,8.27
2023-05-02T20:34:19.632Z,7.83
2023-05-02T20:37:03.858Z,6.80
2023-05-02T20:39:46.910Z,8.47
2023-05-02T20:42:30.124Z,7.50
2023-05-02T20:45:15.131Z,8.10
2023-05-02T20:47:59.708Z,8.43
2023-05-02T20:50:42.930Z,8.40
2023-05-02T20:53:26.169Z,8.40
2023-05-02T20:56:10.819Z,7.40
2023-05-02T20:58:54.303Z,6.93
2023-05-02T21:01:37.560Z,7.67
2023-05-02T21:04:22.300Z,7.90
2023-05-02T21:07:05.478Z,8.47
2023-05-02T21:09:49.072Z,7.83
2023-05-02T21:12:32.179Z,8.30
2023-05-02T21:15:15.539Z,8.10
2023-05-02T21:18:02.348Z,7.20
2023-05-02T21:20:49.353Z,7.87
2023-05-02T21:23:32.474Z,7.30
2023-05-02T21:26:15.695Z,7.47
2023-05-02T21:28:59.173Z,8.33
2023-05-02T21:31:42.363Z,7.73
2023-05-02T21:34:25.575Z,8.10
2023-05-02T21:37:10.150Z,8.20
2023-05-02T21:39:53.368Z,7.70
2023-05-02T21:42:36.652Z,8.20
2023-05-02T21:45:20.080Z,7.93
2023-05-02T21:48:03.313Z,8.00
2023-05-02T21:50:46.774Z,7.87
2023-05-02T21:53:31.537Z,8.27
2023-05-02T21:56:14.746Z,8.30
2023-05-02T21:58:57.899Z,8.30
2023-05-02T22:01:41.315Z,7.57
2023-05-02T22:04:24.938Z,7.97
2023-05-02T22:07:08.213Z,7.73
2023-05-02T22:09:52.742Z,7.93
2023-05-02T22:12:35.896Z,8.67
2023-05-02T22:15:18.999Z,7.63
2023-05-02T22:18:04.923Z,7.90
2023-05-02T22:20:48.770Z,7.43
2023-05-02T22:23:32.138Z,8.57
2023-05-02T22:26:16.704Z,7.97
2023-05-02T22:28:59.819Z,7.80
2023-05-02T22:31:42.881Z,8.13
2023-05-02T22:34:26.134Z,7.90
2023-05-02T22:37:09.705Z,7.83
2023-05-02T22:39:53.725Z,6.90
2023-05-02T22:42:38.208Z,7.83
2023-05-02T22:45:21.409Z,8.27
2023-05-02T22:48:04.912Z,8.00
2023-05-02T22:50:49.199Z,7.70
2023-05-02T22:53:32.751Z,7.67
2023-05-02T22:56:15.962Z,8.30
2023-05-02T22:59:01.252Z,7.93
2023-05-02T23:01:44.384Z,7.20
2023-05-02T23:04:27.573Z,7.43
2023-05-02T23:07:11.052Z,7.87
2023-05-02T23:09:54.285Z,7.90
2023-05-02T23:12:37.369Z,8.30
2023-05-02T23:15:21.861Z,9.00
2023-05-02T23:18:05.179Z,7.60
2023-05-02T23:20:48.442Z,7.87
2023-05-02T23:23:31.881Z,8.40
2023-05-02T23:26:15.139Z,8.00
2023-05-02T23:28:58.266Z,7.97
2023-05-02T23:31:43.065Z,8.10
2023-05-02T23:34:26.547Z,8.03
2023-05-02T23:37:10.020Z,8.00
2023-05-02T23:39:53.139Z,8.23
2023-05-02T23:42:40.302Z,7.60
2023-05-02T23:45:23.792Z,8.83
2023-05-02T23:48:08.573Z,8.03
2023-05-02T23:50:51.945Z,8.40
2023-05-02T23:53:35.068Z,8.23
2023-05-02T23:56:18.170Z,8.90
2023-05-02T23:59:01.211Z,8.47
